sensor_id;sensor_type;location;lat;lon;timestamp;pressure;altitude;pressure_sealevel;temperature;humidity
61474;BME280;53694;49.784;30.150;2023-07-29T00:00:58;98980.53;;;18.60;68.02
61474;BME280;53694;49.784;30.150;2023-07-29T00:02:00;98972.20;;;18.60;67.83
61474;BME280;53694;49.784;30.150;2023-07-29T00:03:01;98974.13;;;18.63;67.84
61474;BME280;53694;49.784;30.150;2023-07-29T00:04:03;98974.13;;;18.63;67.84
61474;BME280;53694;49.784;30.150;2023-07-29T00:05:05;98967.00;;;18.62;67.37
61474;BME280;53694;49.784;30.150;2023-07-29T00:06:09;98970.12;;;18.64;67.72
61474;BME280;53694;49.784;30.150;2023-07-29T00:07:11;98987.17;;;18.66;67.56
61474;BME280;53694;49.784;30.150;2023-07-29T00:08:12;99001.41;;;18.68;67.90
61474;BME280;53694;49.784;30.150;2023-07-29T00:09:14;99007.42;;;18.66;68.43
61474;BME280;53694;49.784;30.150;2023-07-29T00:10:16;99006.27;;;18.64;69.08
61474;BME280;53694;49.784;30.150;2023-07-29T00:11:17;99010.71;;;18.61;69.38
61474;BME280;53694;49.784;30.150;2023-07-29T00:12:19;99000.08;;;18.56;69.70
61474;BME280;53694;49.784;30.150;2023-07-29T00:13:20;99003.81;;;18.49;69.65
61474;BME280;53694;49.784;30.150;2023-07-29T00:14:22;98996.83;;;18.41;70.05
61474;BME280;53694;49.784;30.150;2023-07-29T00:15:23;98996.83;;;18.41;70.05
61474;BME280;53694;49.784;30.150;2023-07-29T00:16:25;98996.13;;;18.37;70.19
61474;BME280;53694;49.784;30.150;2023-07-29T00:17:26;98997.27;;;18.40;70.18
61474;BME280;53694;49.784;30.150;2023-07-29T00:18:28;98982.27;;;18.54;69.89
61474;BME280;53694;49.784;30.150;2023-07-29T00:19:30;98985.05;;;18.73;69.35
61474;BME280;53694;49.784;30.150;2023-07-29T00:20:31;98990.01;;;18.98;68.48
61474;BME280;53694;49.784;30.150;2023-07-29T00:21:33;98988.63;;;19.23;67.97
61474;BME280;53694;49.784;30.150;2023-07-29T00:22:34;98991.41;;;19.39;67.38
61474;BME280;53694;49.784;30.150;2023-07-29T00:23:36;98995.24;;;19.45;66.71
61474;BME280;53694;49.784;30.150;2023-07-29T00:24:37;98987.31;;;19.44;66.62
61474;BME280;53694;49.784;30.150;2023-07-29T00:25:39;98992.55;;;19.42;66.65
61474;BME280;53694;49.784;30.150;2023-07-29T00:26:40;98991.24;;;19.30;67.28
61474;BME280;53694;49.784;30.150;2023-07-29T00:27:42;98991.24;;;19.30;67.28
61474;BME280;53694;49.784;30.150;2023-07-29T00:28:43;98993.41;;;19.22;67.11
61474;BME280;53694;49.784;30.150;2023-07-29T00:29:45;98991.23;;;19.14;67.33
61474;BME280;53694;49.784;30.150;2023-07-29T00:30:47;98988.28;;;19.05;67.68
61474;BME280;53694;49.784;30.150;2023-07-29T00:31:48;98998.80;;;18.97;68.01
61474;BME280;53694;49.784;30.150;2023-07-29T00:32:50;98982.27;;;18.90;68.29
61474;BME280;53694;49.784;30.150;2023-07-29T00:33:51;98978.45;;;18.84;68.61
61474;BME280;53694;49.784;30.150;2023-07-29T00:34:52;98982.97;;;18.78;68.94
61474;BME280;53694;49.784;30.150;2023-07-29T00:35:54;98987.02;;;18.73;69.18
61474;BME280;53694;49.784;30.150;2023-07-29T00:36:56;98989.06;;;18.69;69.32
61474;BME280;53694;49.784;30.150;2023-07-29T00:37:57;98987.95;;;18.66;69.50
61474;BME280;53694;49.784;30.150;2023-07-29T00:38:59;98985.25;;;18.63;69.68
61474;BME280;53694;49.784;30.150;2023-07-29T00:40:00;98986.87;;;18.60;69.85
61474;BME280;53694;49.784;30.150;2023-07-29T00:41:02;98980.61;;;18.56;70.08
61474;BME280;53694;49.784;30.150;2023-07-29T00:42:05;98994.61;;;18.53;70.23
61474;BME280;53694;49.784;30.150;2023-07-29T00:43:06;98976.00;;;18.49;70.52
61474;BME280;53694;49.784;30.150;2023-07-29T00:44:08;98991.84;;;18.53;70.67
61474;BME280;53694;49.784;30.150;2023-07-29T00:45:10;98986.73;;;18.67;70.31
61474;BME280;53694;49.784;30.150;2023-07-29T00:46:12;98988.64;;;18.90;69.73
61474;BME280;53694;49.784;30.150;2023-07-29T00:47:15;98985.59;;;19.17;68.87
61474;BME280;53694;49.784;30.150;2023-07-29T00:48:17;98982.52;;;19.44;68.12
61474;BME280;53694;49.784;30.150;2023-07-29T00:49:20;98984.27;;;19.71;67.07
61474;BME280;53694;49.784;30.150;2023-07-29T00:50:22;98988.75;;;19.81;66.24
61474;BME280;53694;49.784;30.150;2023-07-29T00:51:24;98991.09;;;19.83;66.10
61474;BME280;53694;49.784;30.150;2023-07-29T00:52:26;98989.30;;;19.76;66.10
61474;BME280;53694;49.784;30.150;2023-07-29T00:53:27;98988.34;;;19.66;66.26
61474;BME280;53694;49.784;30.150;2023-07-29T00:54:29;98989.05;;;19.54;66.68
61474;BME280;53694;49.784;30.150;2023-07-29T00:55:30;98982.61;;;19.41;67.09
61474;BME280;53694;49.784;30.150;2023-07-29T00:56:32;98989.23;;;19.31;67.54
61474;BME280;53694;49.784;30.150;2023-07-29T00:57:35;98985.92;;;19.19;67.93
61474;BME280;53694;49.784;30.150;2023-07-29T00:58:36;98978.63;;;19.09;68.23
61474;BME280;53694;49.784;30.150;2023-07-29T00:59:38;98982.80;;;19.01;68.73
61474;BME280;53694;49.784;30.150;2023-07-29T01:00:40;98983.07;;;18.90;68.96
61474;BME280;53694;49.784;30.150;2023-07-29T01:01:42;98983.23;;;18.83;69.26
61474;BME280;53694;49.784;30.150;2023-07-29T01:02:44;98982.60;;;18.76;69.65
61474;BME280;53694;49.784;30.150;2023-07-29T01:03:46;98976.38;;;18.68;69.83
61474;BME280;53694;49.784;30.150;2023-07-29T01:04:55;98977.34;;;18.61;70.14
61474;BME280;53694;49.784;30.150;2023-07-29T01:10:02;98983.05;;;18.74;70.59
61474;BME280;53694;49.784;30.150;2023-07-29T01:13:46;98986.42;;;19.80;67.10
61474;BME280;53694;49.784;30.150;2023-07-29T01:16:17;98993.42;;;20.13;64.62
61474;BME280;53694;49.784;30.150;2023-07-29T01:17:22;98997.66;;;20.05;64.77
61474;BME280;53694;49.784;30.150;2023-07-29T01:18:26;99004.06;;;19.89;64.92
61474;BME280;53694;49.784;30.150;2023-07-29T01:20:19;98993.41;;;19.71;65.56
61474;BME280;53694;49.784;30.150;2023-07-29T01:20:59;98991.84;;;19.54;66.09
61474;BME280;53694;49.784;30.150;2023-07-29T01:22:01;99011.42;;;19.34;66.66
61474;BME280;53694;49.784;30.150;2023-07-29T01:23:04;99022.92;;;19.20;67.22
61474;BME280;53694;49.784;30.150;2023-07-29T01:24:05;99002.53;;;19.07;67.76
61474;BME280;53694;49.784;30.150;2023-07-29T01:25:07;99000.25;;;18.85;68.58
61474;BME280;53694;49.784;30.150;2023-07-29T01:26:10;99000.25;;;18.85;68.58
61474;BME280;53694;49.784;30.150;2023-07-29T01:27:11;98998.07;;;18.77;69.12
61474;BME280;53694;49.784;30.150;2023-07-29T01:28:13;98993.07;;;18.68;69.58
61474;BME280;53694;49.784;30.150;2023-07-29T01:29:15;99003.56;;;18.60;69.87
61474;BME280;53694;49.784;30.150;2023-07-29T01:30:17;99000.18;;;18.53;70.14
61474;BME280;53694;49.784;30.150;2023-07-29T01:34:00;99000.39;;;18.42;71.12
61474;BME280;53694;49.784;30.150;2023-07-29T01:36:25;99002.96;;;18.89;69.72
61474;BME280;53694;49.784;30.150;2023-07-29T01:37:30;99003.77;;;19.22;68.40
61474;BME280;53694;49.784;30.150;2023-07-29T01:38:36;99001.48;;;19.49;67.52
61474;BME280;53694;49.784;30.150;2023-07-29T01:39:40;99004.96;;;19.70;66.62
61474;BME280;53694;49.784;30.150;2023-07-29T01:40:42;99002.86;;;19.74;66.11
61474;BME280;53694;49.784;30.150;2023-07-29T01:41:45;98999.39;;;19.70;66.10
61474;BME280;53694;49.784;30.150;2023-07-29T01:42:47;99010.74;;;19.63;66.11
61474;BME280;53694;49.784;30.150;2023-07-29T01:43:49;99006.27;;;19.49;66.50
61474;BME280;53694;49.784;30.150;2023-07-29T01:44:51;98995.95;;;19.33;67.02
61474;BME280;53694;49.784;30.150;2023-07-29T01:45:53;98996.64;;;19.21;67.47
61474;BME280;53694;49.784;30.150;2023-07-29T01:46:56;98996.55;;;19.08;67.88
61474;BME280;53694;49.784;30.150;2023-07-29T01:47:57;99004.36;;;18.97;68.35
61474;BME280;53694;49.784;30.150;2023-07-29T01:48:59;98998.70;;;18.84;68.87
61474;BME280;53694;49.784;30.150;2023-07-29T01:50:00;98997.29;;;18.76;69.23
61474;BME280;53694;49.784;30.150;2023-07-29T01:51:02;98998.30;;;18.66;69.79
61474;BME280;53694;49.784;30.150;2023-07-29T01:52:04;99000.88;;;18.57;70.20
61474;BME280;53694;49.784;30.150;2023-07-29T01:53:06;98997.47;;;18.49;70.48
61474;BME280;53694;49.784;30.150;2023-07-29T01:54:07;98999.95;;;18.43;70.78
61474;BME280;53694;49.784;30.150;2023-07-29T01:55:09;99002.73;;;18.43;70.97
61474;BME280;53694;49.784;30.150;2023-07-29T01:56:11;98996.17;;;18.54;70.60
61474;BME280;53694;49.784;30.150;2023-07-29T01:57:13;99002.08;;;18.76;70.21
61474;BME280;53694;49.784;30.150;2023-07-29T01:58:14;98998.72;;;19.01;69.54
61474;BME280;53694;49.784;30.150;2023-07-29T01:59:15;98998.90;;;19.26;68.53
61474;BME280;53694;49.784;30.150;2023-07-29T02:00:18;98995.82;;;19.53;67.72
61474;BME280;53694;49.784;30.150;2023-07-29T02:01:20;99000.08;;;19.74;66.75
61474;BME280;53694;49.784;30.150;2023-07-29T02:02:21;99002.23;;;19.83;66.30
61474;BME280;53694;49.784;30.150;2023-07-29T02:03:23;99004.69;;;19.81;66.04
61474;BME280;53694;49.784;30.150;2023-07-29T02:04:24;99004.96;;;19.70;66.20
61474;BME280;53694;49.784;30.150;2023-07-29T02:05:26;99000.08;;;19.58;66.62
61474;BME280;53694;49.784;30.150;2023-07-29T02:06:28;99003.68;;;19.42;67.16
61474;BME280;53694;49.784;30.150;2023-07-29T02:07:29;99003.61;;;19.29;67.65
61474;BME280;53694;49.784;30.150;2023-07-29T02:08:31;99005.52;;;19.16;68.03
61474;BME280;53694;49.784;30.150;2023-07-29T02:09:32;98996.27;;;19.03;68.62
61474;BME280;53694;49.784;30.150;2023-07-29T02:10:34;99007.30;;;18.90;68.94
61474;BME280;53694;49.784;30.150;2023-07-29T02:11:35;99000.44;;;18.78;69.44
61474;BME280;53694;49.784;30.150;2023-07-29T02:12:37;98999.85;;;18.67;69.97
61474;BME280;53694;49.784;30.150;2023-07-29T02:13:38;99003.66;;;18.57;70.43
61474;BME280;53694;49.784;30.150;2023-07-29T02:14:40;99007.81;;;18.48;70.88
61474;BME280;53694;49.784;30.150;2023-07-29T02:15:41;99002.39;;;18.41;71.21
61474;BME280;53694;49.784;30.150;2023-07-29T02:16:43;99002.73;;;18.43;71.27
61474;BME280;53694;49.784;30.150;2023-07-29T02:17:45;99008.08;;;18.54;71.10
61474;BME280;53694;49.784;30.150;2023-07-29T02:18:46;99008.86;;;18.75;70.79
61474;BME280;53694;49.784;30.150;2023-07-29T02:19:48;99012.63;;;19.01;69.95
61474;BME280;53694;49.784;30.150;2023-07-29T02:20:49;99007.58;;;19.28;69.00
61474;BME280;53694;49.784;30.150;2023-07-29T02:21:51;99010.88;;;19.56;68.14
61474;BME280;53694;49.784;30.150;2023-07-29T02:22:52;99011.91;;;19.78;67.15
61474;BME280;53694;49.784;30.150;2023-07-29T02:23:54;99015.53;;;19.91;66.61
61474;BME280;53694;49.784;30.150;2023-07-29T02:24:55;99014.84;;;19.87;66.18
61474;BME280;53694;49.784;30.150;2023-07-29T02:25:57;99014.84;;;19.87;66.18
61474;BME280;53694;49.784;30.150;2023-07-29T02:26:58;99015.92;;;19.77;66.46
61474;BME280;53694;49.784;30.150;2023-07-29T02:28:00;99006.28;;;19.65;66.65
61474;BME280;53694;49.784;30.150;2023-07-29T02:29:02;99012.62;;;19.49;67.16
61474;BME280;53694;49.784;30.150;2023-07-29T02:30:04;99009.87;;;19.33;67.73
61474;BME280;53694;49.784;30.150;2023-07-29T02:31:21;99007.41;;;19.19;68.14
61474;BME280;53694;49.784;30.150;2023-07-29T02:32:23;99007.32;;;19.06;68.70
61474;BME280;53694;49.784;30.150;2023-07-29T02:33:24;99021.21;;;18.90;69.33
61474;BME280;53694;49.784;30.150;2023-07-29T02:34:26;99011.56;;;18.78;69.88
61474;BME280;53694;49.784;30.150;2023-07-29T02:35:28;99008.20;;;18.67;70.27
61474;BME280;53694;49.784;30.150;2023-07-29T02:36:29;99008.34;;;18.60;70.79
61474;BME280;53694;49.784;30.150;2023-07-29T02:37:31;99008.52;;;18.53;71.08
61474;BME280;53694;49.784;30.150;2023-07-29T02:38:32;99008.72;;;18.62;71.52
61474;BME280;53694;49.784;30.150;2023-07-29T02:39:34;99008.72;;;18.62;71.52
61474;BME280;53694;49.784;30.150;2023-07-29T02:40:37;99003.22;;;18.78;70.84
61474;BME280;53694;49.784;30.150;2023-07-29T02:41:39;99019.67;;;19.05;70.32
61474;BME280;53694;49.784;30.150;2023-07-29T02:42:40;99012.98;;;19.35;69.29
61474;BME280;53694;49.784;30.150;2023-07-29T02:43:43;99013.94;;;19.61;68.17
61474;BME280;53694;49.784;30.150;2023-07-29T02:44:45;99023.66;;;19.86;67.32
61474;BME280;53694;49.784;30.150;2023-07-29T02:45:46;99023.17;;;20.04;66.82
61474;BME280;53694;49.784;30.150;2023-07-29T02:46:48;99019.83;;;20.09;66.37
61474;BME280;53694;49.784;30.150;2023-07-29T02:47:49;99025.53;;;20.05;66.21
61474;BME280;53694;49.784;30.150;2023-07-29T02:48:51;99030.61;;;19.94;66.41
61474;BME280;53694;49.784;30.150;2023-07-29T02:49:52;99020.72;;;19.77;66.68
61474;BME280;53694;49.784;30.150;2023-07-29T02:50:54;99032.66;;;19.61;67.29
61474;BME280;53694;49.784;30.150;2023-07-29T02:51:56;99040.66;;;19.42;67.95
61474;BME280;53694;49.784;30.150;2023-07-29T02:52:57;99032.30;;;19.26;68.64
61474;BME280;53694;49.784;30.150;2023-07-29T02:53:59;99038.30;;;19.08;69.18
61474;BME280;53694;49.784;30.150;2023-07-29T02:55:01;99037.05;;;18.93;69.80
61474;BME280;53694;49.784;30.150;2023-07-29T02:56:03;99037.38;;;18.79;70.44
61474;BME280;53694;49.784;30.150;2023-07-29T02:57:05;99039.64;;;18.64;71.02
61474;BME280;53694;49.784;30.150;2023-07-29T02:58:07;99028.05;;;18.49;71.54
61474;BME280;53694;49.784;30.150;2023-07-29T02:59:08;99024.19;;;18.43;72.02
61474;BME280;53694;49.784;30.150;2023-07-29T03:00:11;99029.27;;;18.48;72.03
61474;BME280;53694;49.784;30.150;2023-07-29T03:01:13;99029.73;;;18.63;71.82
61474;BME280;53694;49.784;30.150;2023-07-29T03:02:14;99030.08;;;18.85;71.54
61474;BME280;53694;49.784;30.150;2023-07-29T03:03:16;99023.94;;;19.10;70.72
61474;BME280;53694;49.784;30.150;2023-07-29T03:04:17;99023.26;;;19.38;69.82
61474;BME280;53694;49.784;30.150;2023-07-29T03:05:19;99025.45;;;19.63;68.71
61474;BME280;53694;49.784;30.150;2023-07-29T03:06:20;99025.99;;;19.87;67.87
61474;BME280;53694;49.784;30.150;2023-07-29T03:07:22;99026.41;;;20.02;66.97
61474;BME280;53694;49.784;30.150;2023-07-29T03:08:23;99031.89;;;20.06;66.84
61474;BME280;53694;49.784;30.150;2023-07-29T03:09:25;99039.56;;;20.02;66.81
61474;BME280;53694;49.784;30.150;2023-07-29T03:10:26;99035.48;;;19.90;66.85
61474;BME280;53694;49.784;30.150;2023-07-29T03:11:28;99031.17;;;19.72;67.40
61474;BME280;53694;49.784;30.150;2023-07-29T03:12:29;99033.16;;;19.56;67.87
61474;BME280;53694;49.784;30.150;2023-07-29T03:13:31;99032.92;;;19.34;68.52
61474;BME280;53694;49.784;30.150;2023-07-29T03:14:32;99035.44;;;19.12;69.38
61474;BME280;53694;49.784;30.150;2023-07-29T03:15:34;99029.84;;;18.95;70.17
61474;BME280;53694;49.784;30.150;2023-07-29T03:16:35;99032.93;;;18.81;70.75
61474;BME280;53694;49.784;30.150;2023-07-29T03:17:37;99035.56;;;18.68;71.46
61474;BME280;53694;49.784;30.150;2023-07-29T03:18:38;99028.17;;;18.62;71.86
61474;BME280;53694;49.784;30.150;2023-07-29T03:19:40;99028.11;;;18.65;71.89
61474;BME280;53694;49.784;30.150;2023-07-29T03:20:42;99028.96;;;18.82;71.91
61474;BME280;53694;49.784;30.150;2023-07-29T03:21:43;99035.59;;;19.05;71.15
61474;BME280;53694;49.784;30.150;2023-07-29T03:22:45;99023.50;;;19.28;70.48
61474;BME280;53694;49.784;30.150;2023-07-29T03:23:46;99032.47;;;19.52;69.44
61474;BME280;53694;49.784;30.150;2023-07-29T03:24:48;99032.40;;;19.71;69.00
61474;BME280;53694;49.784;30.150;2023-07-29T03:25:50;99033.72;;;19.96;68.19
61474;BME280;53694;49.784;30.150;2023-07-29T03:26:51;99025.86;;;20.07;67.14
61474;BME280;53694;49.784;30.150;2023-07-29T03:27:53;99032.22;;;20.08;67.02
61474;BME280;53694;49.784;30.150;2023-07-29T03:28:54;99031.63;;;20.00;67.20
61474;BME280;53694;49.784;30.150;2023-07-29T03:29:56;99034.80;;;19.86;67.51
61474;BME280;53694;49.784;30.150;2023-07-29T03:30:57;99033.27;;;19.68;68.08
61474;BME280;53694;49.784;30.150;2023-07-29T03:31:59;99031.24;;;19.53;68.66
61474;BME280;53694;49.784;30.150;2023-07-29T03:33:01;99038.04;;;19.35;69.22
61474;BME280;53694;49.784;30.150;2023-07-29T03:34:02;99038.03;;;19.19;69.81
61474;BME280;53694;49.784;30.150;2023-07-29T03:35:05;99033.33;;;19.00;70.43
61474;BME280;53694;49.784;30.150;2023-07-29T03:36:06;99036.50;;;18.82;71.27
61474;BME280;53694;49.784;30.150;2023-07-29T03:37:08;99028.89;;;18.66;71.96
61474;BME280;53694;49.784;30.150;2023-07-29T03:38:11;99034.59;;;18.59;72.55
61474;BME280;53694;49.784;30.150;2023-07-29T03:39:12;99026.62;;;18.61;72.83
61474;BME280;53694;49.784;30.150;2023-07-29T03:40:14;99028.73;;;18.73;72.83
61474;BME280;53694;49.784;30.150;2023-07-29T03:41:15;99028.26;;;18.94;72.48
61474;BME280;53694;49.784;30.150;2023-07-29T03:42:17;99023.34;;;19.18;71.80
61474;BME280;53694;49.784;30.150;2023-07-29T03:43:19;99023.50;;;19.44;70.84
61474;BME280;53694;49.784;30.150;2023-07-29T03:44:20;99022.03;;;19.72;70.02
61474;BME280;53694;49.784;30.150;2023-07-29T03:45:22;99028.50;;;19.98;69.12
61474;BME280;53694;49.784;30.150;2023-07-29T03:46:25;99028.36;;;20.18;67.94
61474;BME280;53694;49.784;30.150;2023-07-29T03:47:27;99026.30;;;20.35;67.27
61474;BME280;53694;49.784;30.150;2023-07-29T03:48:29;99029.12;;;20.47;66.97
61474;BME280;53694;49.784;30.150;2023-07-29T03:49:30;99029.47;;;20.50;66.89
61474;BME280;53694;49.784;30.150;2023-07-29T03:50:34;99023.64;;;20.44;66.88
61474;BME280;53694;49.784;30.150;2023-07-29T03:51:36;99024.03;;;20.30;67.06
61474;BME280;53694;49.784;30.150;2023-07-29T03:52:37;99028.88;;;20.13;67.65
61474;BME280;53694;49.784;30.150;2023-07-29T03:53:39;99031.38;;;19.94;68.14
61474;BME280;53694;49.784;30.150;2023-07-29T03:54:40;99029.50;;;19.75;68.67
61474;BME280;53694;49.784;30.150;2023-07-29T03:55:42;99033.16;;;19.56;69.32
61474;BME280;53694;49.784;30.150;2023-07-29T03:56:43;99028.13;;;19.34;69.80
61474;BME280;53694;49.784;30.150;2023-07-29T03:57:45;99022.92;;;19.20;70.66
61474;BME280;53694;49.784;30.150;2023-07-29T03:58:46;99030.36;;;19.07;71.28
61474;BME280;53694;49.784;30.150;2023-07-29T03:59:48;99027.40;;;18.97;71.78
61474;BME280;53694;49.784;30.150;2023-07-29T04:00:49;99031.14;;;18.91;71.98
61474;BME280;53694;49.784;30.150;2023-07-29T04:01:51;99025.84;;;18.96;72.13
61474;BME280;53694;49.784;30.150;2023-07-29T04:02:53;99026.72;;;19.10;71.72
61474;BME280;53694;49.784;30.150;2023-07-29T04:03:54;99025.09;;;19.29;71.23
61474;BME280;53694;49.784;30.150;2023-07-29T04:04:56;99021.33;;;19.52;70.52
61474;BME280;53694;49.784;30.150;2023-07-29T04:05:57;99031.09;;;19.76;69.55
61474;BME280;53694;49.784;30.150;2023-07-29T04:06:59;99029.52;;;20.04;68.98
61474;BME280;53694;49.784;30.150;2023-07-29T04:08:01;99028.83;;;20.29;68.08
61474;BME280;53694;49.784;30.150;2023-07-29T04:09:03;99026.69;;;20.50;67.40
61474;BME280;53694;49.784;30.150;2023-07-29T04:10:05;99024.02;;;20.59;66.63
61474;BME280;53694;49.784;30.150;2023-07-29T04:11:07;99017.66;;;20.58;66.22
61474;BME280;53694;49.784;30.150;2023-07-29T04:12:09;99022.34;;;20.49;66.08
61474;BME280;53694;49.784;30.150;2023-07-29T04:13:10;99019.13;;;20.34;66.52
61474;BME280;53694;49.784;30.150;2023-07-29T04:14:12;99025.13;;;20.19;67.16
61474;BME280;53694;49.784;30.150;2023-07-29T04:15:13;99023.17;;;20.04;67.49
61474;BME280;53694;49.784;30.150;2023-07-29T04:16:16;99026.77;;;19.88;67.95
61474;BME280;53694;49.784;30.150;2023-07-29T04:17:17;99023.27;;;19.71;68.58
61474;BME280;53694;49.784;30.150;2023-07-29T04:18:18;99031.16;;;19.56;69.08
61474;BME280;53694;49.784;30.150;2023-07-29T04:19:20;99028.74;;;19.42;69.85
61474;BME280;53694;49.784;30.150;2023-07-29T04:20:22;99026.66;;;19.30;70.36
61474;BME280;53694;49.784;30.150;2023-07-29T04:21:23;99022.11;;;19.19;70.76
61474;BME280;53694;49.784;30.150;2023-07-29T04:22:25;99027.09;;;19.12;71.30
61474;BME280;53694;49.784;30.150;2023-07-29T04:23:26;99024.30;;;19.12;71.66
61474;BME280;53694;49.784;30.150;2023-07-29T04:24:28;99022.47;;;19.21;71.46
61474;BME280;53694;49.784;30.150;2023-07-29T04:25:29;99031.94;;;19.40;70.92
61474;BME280;53694;49.784;30.150;2023-07-29T04:26:31;99023.44;;;19.64;70.47
61474;BME280;53694;49.784;30.150;2023-07-29T04:27:32;99031.38;;;19.94;69.61
61474;BME280;53694;49.784;30.150;2023-07-29T04:28:34;99030.25;;;20.21;68.46
61474;BME280;53694;49.784;30.150;2023-07-29T04:29:35;99035.05;;;20.50;67.69
61474;BME280;53694;49.784;30.150;2023-07-29T04:30:38;99034.88;;;20.69;66.79
61474;BME280;53694;49.784;30.150;2023-07-29T04:31:40;99037.32;;;20.80;66.39
61474;BME280;53694;49.784;30.150;2023-07-29T04:32:41;99034.20;;;20.78;66.12
61474;BME280;53694;49.784;30.150;2023-07-29T04:33:43;99036.42;;;20.70;65.90
61474;BME280;53694;49.784;30.150;2023-07-29T04:34:44;99037.64;;;20.57;66.31
61474;BME280;53694;49.784;30.150;2023-07-29T04:35:46;99040.11;;;20.38;66.47
61474;BME280;53694;49.784;30.150;2023-07-29T04:36:48;99042.63;;;20.20;66.78
61474;BME280;53694;49.784;30.150;2023-07-29T04:37:49;99036.77;;;20.02;67.71
61474;BME280;53694;49.784;30.150;2023-07-29T04:38:51;99039.59;;;19.85;68.69
61474;BME280;53694;49.784;30.150;2023-07-29T04:39:52;99043.18;;;19.69;68.83
61474;BME280;53694;49.784;30.150;2023-07-29T04:40:54;99039.18;;;19.54;69.76
61474;BME280;53694;49.784;30.150;2023-07-29T04:41:55;99043.86;;;19.41;69.90
61474;BME280;53694;49.784;30.150;2023-07-29T04:42:57;99050.75;;;19.20;70.81
61474;BME280;53694;49.784;30.150;2023-07-29T04:43:58;99050.75;;;19.20;70.81
61474;BME280;53694;49.784;30.150;2023-07-29T04:45:00;99043.67;;;19.15;71.41
61474;BME280;53694;49.784;30.150;2023-07-29T04:46:01;99040.48;;;19.17;71.76
61474;BME280;53694;49.784;30.150;2023-07-29T04:47:03;99043.36;;;19.30;71.63
61474;BME280;53694;49.784;30.150;2023-07-29T04:48:05;99064.33;;;19.51;70.85
61474;BME280;53694;49.784;30.150;2023-07-29T04:49:06;99053.01;;;19.74;69.55
61474;BME280;53694;49.784;30.150;2023-07-29T04:50:09;99047.14;;;20.01;68.83
61474;BME280;53694;49.784;30.150;2023-07-29T04:51:10;99054.80;;;20.26;67.63
61474;BME280;53694;49.784;30.150;2023-07-29T04:52:12;99038.52;;;20.45;67.11
61474;BME280;53694;49.784;30.150;2023-07-29T04:53:14;99038.52;;;20.54;66.55
61474;BME280;53694;49.784;30.150;2023-07-29T04:54:15;99048.12;;;20.53;66.43
61474;BME280;53694;49.784;30.150;2023-07-29T04:55:17;99052.62;;;20.46;66.80
61474;BME280;53694;49.784;30.150;2023-07-29T04:56:18;99050.94;;;20.36;67.00
61474;BME280;53694;49.784;30.150;2023-07-29T04:57:20;99049.34;;;20.22;67.37
61474;BME280;53694;49.784;30.150;2023-07-29T04:58:22;99077.59;;;20.08;67.30
61474;BME280;53694;49.784;30.150;2023-07-29T04:59:23;99054.91;;;19.93;68.21
61474;BME280;53694;49.784;30.150;2023-07-29T05:00:25;99052.39;;;19.83;68.64
61474;BME280;53694;49.784;30.150;2023-07-29T05:01:27;99051.45;;;19.73;69.25
61474;BME280;53694;49.784;30.150;2023-07-29T05:02:28;99056.00;;;19.67;69.64
61474;BME280;53694;49.784;30.150;2023-07-29T05:03:30;99064.49;;;19.60;69.92
61474;BME280;53694;49.784;30.150;2023-07-29T05:04:31;99050.66;;;19.56;70.08
61474;BME280;53694;49.784;30.150;2023-07-29T05:05:33;99062.24;;;19.55;70.50
61474;BME280;53694;49.784;30.150;2023-07-29T05:06:34;99071.37;;;19.55;70.52
61474;BME280;53694;49.784;30.150;2023-07-29T05:07:36;99064.86;;;19.62;70.21
61474;BME280;53694;49.784;30.150;2023-07-29T05:08:37;99060.83;;;19.79;69.44
61474;BME280;53694;49.784;30.150;2023-07-29T05:09:39;99064.64;;;20.02;68.63
61474;BME280;53694;49.784;30.150;2023-07-29T05:10:41;99064.74;;;20.27;66.71
61474;BME280;53694;49.784;30.150;2023-07-29T05:11:42;99064.17;;;20.49;65.77
61474;BME280;53694;49.784;30.150;2023-07-29T05:12:44;99073.34;;;20.62;65.13
61474;BME280;53694;49.784;30.150;2023-07-29T05:13:45;99071.11;;;20.57;64.89
61474;BME280;53694;49.784;30.150;2023-07-29T05:14:47;99074.55;;;20.48;64.71
61474;BME280;53694;49.784;30.150;2023-07-29T05:15:49;99074.55;;;20.48;64.71
61474;BME280;53694;49.784;30.150;2023-07-29T05:16:51;99073.58;;;20.38;64.91
61474;BME280;53694;49.784;30.150;2023-07-29T05:17:52;99079.02;;;20.29;65.59
61474;BME280;53694;49.784;30.150;2023-07-29T05:18:54;99076.09;;;20.20;66.03
61474;BME280;53694;49.784;30.150;2023-07-29T05:19:55;99072.02;;;20.08;66.53
61474;BME280;53694;49.784;30.150;2023-07-29T05:20:57;99071.86;;;19.99;67.11
61474;BME280;53694;49.784;30.150;2023-07-29T05:21:58;99074.41;;;19.93;67.40
61474;BME280;53694;49.784;30.150;2023-07-29T05:23:00;99070.58;;;19.87;67.45
61474;BME280;53694;49.784;30.150;2023-07-29T05:24:01;99071.20;;;19.79;67.83
61474;BME280;53694;49.784;30.150;2023-07-29T05:25:04;99071.40;;;19.71;68.22
61474;BME280;53694;49.784;30.150;2023-07-29T05:26:06;99074.27;;;19.68;68.37
61474;BME280;53694;49.784;30.150;2023-07-29T05:27:07;99070.43;;;19.62;68.97
61474;BME280;53694;49.784;30.150;2023-07-29T05:28:09;99066.14;;;19.57;69.43
61474;BME280;53694;49.784;30.150;2023-07-29T05:29:10;99062.24;;;19.55;69.75
61474;BME280;53694;49.784;30.150;2023-07-29T05:30:12;99063.44;;;19.54;70.08
61474;BME280;53694;49.784;30.150;2023-07-29T05:31:13;99065.80;;;19.55;69.97
61474;BME280;53694;49.784;30.150;2023-07-29T05:32:15;99065.80;;;19.55;69.93
61474;BME280;53694;49.784;30.150;2023-07-29T05:33:17;99064.86;;;19.62;70.17
61474;BME280;53694;49.784;30.150;2023-07-29T05:34:18;99063.73;;;19.76;69.77
61474;BME280;53694;49.784;30.150;2023-07-29T05:35:20;99062.22;;;19.87;69.19
61474;BME280;53694;49.784;30.150;2023-07-29T05:36:21;99061.50;;;20.00;68.80